Time;durP1;ratioP1;P1;durP2;ratioP2;P2;SDS_P1;SDS_P2;PMS_P1;PMS_P2;Temp;Humidity;BMP_temperature;BMP_pressure;BME280_temperature;BME280_humidity;BME280_pressure;Samples;Min_cycle;Max_cycle;Signal;HPM_P1;HPM_P2
2021/06/09 00:00:38;;;;;;;2.60;2.00;;;;;;;-144.99;65.40;52207.59;5077603;28;20208;-79
2021/06/09 00:03:13;;;;;;;4.07;2.00;;;;;;;-144.99;66.03;52170.91;5075692;28;20361;-79
2021/06/09 00:05:49;;;;;;;5.33;2.67;;;;;;;-144.99;66.62;52170.91;5075491;28;20707;-80
2021/06/09 00:08:19;;;;;;;3.30;2.30;;;;;;;-144.99;66.84;52232.03;5061091;28;20304;-80
2021/06/09 00:10:56;;;;;;;3.60;2.43;;;;;;;-144.99;67.80;52199.44;5072270;28;20439;-79
2021/06/09 00:13:33;;;;;;;3.53;1.80;;;;;;;-144.99;68.09;52187.19;5070165;28;20723;-80
2021/06/09 00:16:09;;;;;;;6.53;2.57;;;;;;;-144.99;68.29;52174.97;5069950;28;20695;-81
2021/06/09 00:18:44;;;;;;;3.80;2.43;;;;;;;-144.99;68.29;52207.59;5076059;28;20219;-81
2021/06/09 00:21:21;;;;;;;3.37;2.37;;;;;;;-144.99;68.86;52207.59;5077451;28;20203;-79
2021/06/09 00:23:53;;;;;;;4.07;2.60;;;;;;;-144.99;69.25;52219.81;5077610;28;20399;-79
2021/06/09 00:26:24;;;;;;;4.13;2.40;;;;;;;-144.99;69.57;52234.09;5070454;28;20618;-80
2021/06/09 00:28:59;;;;;;;3.63;2.43;;;;;;;-144.99;69.79;52219.81;5069733;28;20205;-79
2021/06/09 00:31:33;;;;;;;5.47;3.60;;;;;;;-144.99;69.66;52223.88;5069696;28;20204;-79
2021/06/09 00:34:05;;;;;;;6.47;2.80;;;;;;;-144.99;69.77;52203.50;5078974;28;20232;-81
2021/06/09 00:36:41;;;;;;;3.87;2.67;;;;;;;-144.99;69.39;52203.50;5079474;28;20228;-80
2021/06/09 00:39:16;;;;;;;4.43;2.27;;;;;;;-144.99;69.35;52211.66;5068872;28;20232;-80
2021/06/09 00:41:50;;;;;;;5.20;2.40;;;;;;;-144.99;68.69;52227.97;5080739;28;20218;-81
2021/06/09 00:44:25;;;;;;;3.13;2.47;;;;;;;-144.99;68.37;52179.06;5088055;28;20319;-82
2021/06/09 00:47:00;;;;;;;3.80;2.60;;;;;;;-144.99;68.24;52215.75;5071005;28;20231;-76
2021/06/09 00:49:35;;;;;;;6.20;2.90;;;;;;;-144.99;67.99;52205.53;5070664;28;20204;-78
2021/06/09 00:52:11;;;;;;;4.80;2.77;;;;;;;-144.99;67.86;52187.19;5066814;28;20236;-78
2021/06/09 00:54:42;;;;;;;4.03;2.67;;;;;;;-144.99;67.55;52203.50;5071763;28;20284;-79
2021/06/09 00:57:18;;;;;;;5.17;2.60;;;;;;;-144.99;67.30;52199.44;5072663;28;20241;-79
2021/06/09 00:59:52;;;;;;;3.27;1.90;;;;;;;-144.99;67.23;52213.69;5068812;28;20215;-79
2021/06/09 01:02:27;;;;;;;9.03;4.30;;;;;;;-144.99;67.17;52187.19;5072820;28;20204;-82
2021/06/09 01:05:01;;;;;;;3.97;2.10;;;;;;;-144.99;67.30;52174.97;5076036;28;20575;-81
2021/06/09 01:07:42;;;;;;;3.33;2.00;;;;;;;-144.99;67.31;52195.34;5076000;28;20235;-81
2021/06/09 01:10:16;;;;;;;3.10;2.10;;;;;;;-144.99;67.20;52219.81;5074753;28;20259;-80
2021/06/09 01:12:52;;;;;;;4.00;2.63;;;;;;;-144.99;67.13;52203.50;5070725;28;20295;-81
2021/06/09 01:15:24;;;;;;;2.83;2.10;;;;;;;-144.99;67.16;52248.34;5069862;28;20690;-79
2021/06/09 01:18:05;;;;;;;5.27;3.03;;;;;;;-144.99;67.57;52187.19;5069278;28;20211;-80
2021/06/09 01:20:40;;;;;;;4.80;2.37;;;;;;;-144.99;67.55;52205.53;5070894;28;20200;-80
2021/06/09 01:23:16;;;;;;;2.97;1.93;;;;;;;-144.99;67.50;52240.19;5068795;28;20659;-80
2021/06/09 01:25:52;;;;;;;4.63;2.57;;;;;;;-144.99;67.38;52195.34;5070844;28;20291;-79
2021/06/09 01:28:27;;;;;;;5.07;2.83;;;;;;;-144.99;67.43;52195.34;5073075;28;20196;-80
2021/06/09 01:31:01;;;;;;;3.17;1.93;;;;;;;-144.99;67.70;52191.28;5075496;28;20257;-80
2021/06/09 01:33:34;;;;;;;2.80;1.93;;;;;;;-144.99;67.88;52215.75;5073672;28;20230;-80
2021/06/09 01:36:08;;;;;;;4.10;2.60;;;;;;;-144.99;67.95;52211.66;5069062;28;20280;-80
2021/06/09 01:38:38;;;;;;;2.87;1.90;;;;;;;-144.99;68.23;52236.13;5084094;28;20222;-80
2021/06/09 01:41:13;;;;;;;8.47;2.77;;;;;;;-144.99;68.39;52195.34;5071328;28;20201;-80
2021/06/09 01:43:45;;;;;;;3.70;2.27;;;;;;;-144.99;68.29;52211.66;5074040;28;20315;-80
2021/06/09 01:46:15;;;;;;;6.33;2.47;;;;;;;-144.99;68.52;52215.75;5075030;28;20216;-80
2021/06/09 01:48:50;;;;;;;5.50;2.37;;;;;;;-144.99;68.93;52207.59;5078571;28;20435;-80
2021/06/09 01:51:25;;;;;;;4.57;2.30;;;;;;;-144.99;69.64;52197.41;5081142;28;20264;-81
2021/06/09 01:54:04;;;;;;;6.20;2.53;;;;;;;-144.99;70.15;52227.97;5078835;28;20754;-80
2021/06/09 01:56:34;;;;;;;4.63;2.60;;;;;;;-144.99;70.16;52185.16;5080133;28;20229;-83
2021/06/09 01:59:15;;;;;;;3.60;2.47;;;;;;;-144.99;70.46;52238.16;5089762;28;20272;-82
2021/06/09 02:01:52;;;;;;;5.07;2.37;;;;;;;-144.99;70.84;52232.03;5076055;28;20259;-82
2021/06/09 02:04:28;;;;;;;2.53;1.97;;;;;;;-144.99;70.86;52217.78;5086319;28;20239;-84
2021/06/09 02:07:05;;;;;;;3.90;2.33;;;;;;;-144.99;71.28;52252.44;5084806;28;20204;-80
2021/06/09 02:09:43;;;;;;;4.83;1.90;;;;;;;-144.99;71.52;52268.72;5081211;28;20217;-80
2021/06/09 02:12:15;;;;;;;3.90;2.33;;;;;;;-144.99;71.99;52227.97;5083444;28;20262;-82
2021/06/09 02:14:49;;;;;;;5.33;2.47;;;;;;;-144.99;71.95;52207.59;5078453;28;20304;-82
2021/06/09 02:17:24;;;;;;;3.80;2.10;;;;;;;-144.99;72.42;52219.81;5084154;28;20222;-82
2021/06/09 02:19:59;;;;;;;3.80;2.13;;;;;;;-144.99;72.60;52195.34;5069895;28;20211;-81
2021/06/09 02:22:31;;;;;;;2.73;1.77;;;;;;;-144.99;72.60;52219.81;5076822;28;20262;-82
2021/06/09 02:25:09;;;;;;;8.60;2.03;;;;;;;-144.99;72.45;52248.34;5081916;28;20211;-82
2021/06/09 02:27:43;;;;;;;4.27;1.93;;;;;;;-144.99;72.63;52221.84;5076393;28;20254;-81
2021/06/09 02:30:16;;;;;;;5.40;2.07;;;;;;;-144.99;72.73;52203.50;5089352;28;20215;-84
2021/06/09 02:32:53;;;;;;;2.70;1.90;;;;;;;-144.99;73.06;52205.53;5084805;28;20232;-83
2021/06/09 02:35:25;;;;;;;2.97;2.20;;;;;;;-144.99;73.00;52232.03;5078616;28;20240;-82
2021/06/09 02:37:57;;;;;;;3.30;2.40;;;;;;;-144.99;72.86;52248.34;5074407;28;20583;-82
2021/06/09 02:40:31;;;;;;;6.77;2.13;;;;;;;-144.99;72.93;52219.81;5073653;28;20273;-84
2021/06/09 02:43:06;;;;;;;4.13;2.70;;;;;;;-144.99;73.26;52244.28;5090442;28;20244;-84
2021/06/09 02:45:42;;;;;;;5.27;3.10;;;;;;;-144.99;73.13;52203.50;5079520;28;20325;-82
2021/06/09 02:48:19;;;;;;;4.07;3.13;;;;;;;-144.99;73.68;52219.81;5069589;28;20666;-81
2021/06/09 02:50:51;;;;;;;3.33;2.67;;;;;;;-144.99;73.58;52219.81;5072595;28;20205;-81
2021/06/09 02:53:30;;;;;;;5.53;2.97;;;;;;;-144.99;73.70;52225.94;5072752;28;20261;-81
2021/06/09 02:56:27;;;;;;;3.87;2.10;;;;;;;-144.99;73.97;52191.28;5069953;28;20259;-80
2021/06/09 02:59:05;;;;;;;4.70;2.10;;;;;;;-144.99;74.43;52207.59;5052876;28;20245;-83
2021/06/09 03:01:47;;;;;;;4.87;1.97;;;;;;;-144.99;74.46;52244.28;5085791;28;20215;-83
2021/06/09 03:04:26;;;;;;;4.37;2.43;;;;;;;-144.99;74.48;52280.97;5076263;28;20230;-82
2021/06/09 03:07:05;;;;;;;3.23;2.33;;;;;;;-144.99;74.54;52221.84;5068959;28;20266;-83
2021/06/09 03:09:50;;;;;;;4.07;2.73;;;;;;;-144.99;74.67;52191.28;5075459;28;20206;-81
2021/06/09 03:12:35;;;;;;;4.03;2.53;;;;;;;-144.99;74.43;52219.81;5090654;28;20189;-82
2021/06/09 03:15:13;;;;;;;4.57;2.77;;;;;;;-144.99;74.64;52215.75;5071886;28;20236;-81
2021/06/09 03:17:56;;;;;;;4.57;2.33;;;;;;;-144.99;74.76;52238.16;5074484;28;20226;-80
2021/06/09 03:20:43;;;;;;;8.50;2.87;;;;;;;-144.99;74.77;52221.84;5073347;28;20299;-82
2021/06/09 03:23:19;;;;;;;6.53;3.07;;;;;;;-144.99;74.66;52225.94;5074706;28;20481;-81
2021/06/09 03:25:56;;;;;;;5.00;2.87;;;;;;;-144.99;74.80;52203.50;5076657;28;20212;-82
2021/06/09 03:28:34;;;;;;;4.40;2.37;;;;;;;-144.99;74.75;52217.78;5074697;28;21915;-81
2021/06/09 03:31:12;;;;;;;5.13;2.83;;;;;;;-144.99;74.89;52252.44;5075755;28;20244;-83
2021/06/09 03:33:51;;;;;;;5.03;2.90;;;;;;;-144.99;75.26;52219.81;5075896;28;20252;-82
2021/06/09 03:36:27;;;;;;;6.73;2.67;;;;;;;-144.99;75.12;52244.28;5075003;28;20312;-81
2021/06/09 03:39:07;;;;;;;5.47;2.67;;;;;;;-144.99;75.28;52179.06;5071643;28;20265;-81
2021/06/09 03:41:44;;;;;;;5.50;3.07;;;;;;;-144.99;75.48;52211.66;5069357;28;20316;-77
2021/06/09 03:44:25;;;;;;;4.67;2.63;;;;;;;-144.99;75.72;52236.13;5068495;28;20237;-82
2021/06/09 03:47:01;;;;;;;7.60;2.87;;;;;;;-144.99;75.81;52213.69;5073852;28;20280;-80
2021/06/09 03:49:37;;;;;;;6.10;2.67;;;;;;;-144.99;75.83;52193.31;5086623;28;20209;-82
2021/06/09 03:52:14;;;;;;;5.10;2.57;;;;;;;-144.99;76.12;52179.06;5091695;28;20226;-81
2021/06/09 03:54:52;;;;;;;6.13;2.30;;;;;;;-144.99;76.15;52219.81;5076502;28;20209;-81
2021/06/09 03:57:27;;;;;;;9.97;5.30;;;;;;;-144.99;76.14;52240.19;5076904;28;20244;-81
2021/06/09 04:00:03;;;;;;;11.17;7.10;;;;;;;-144.99;76.03;52179.06;5073514;28;20200;-79
2021/06/09 04:02:39;;;;;;;7.03;5.17;;;;;;;-144.99;75.72;52223.88;5072068;28;20206;-78
2021/06/09 04:05:13;;;;;;;5.70;4.33;;;;;;;-144.99;75.67;52219.81;5077153;28;20211;-79
2021/06/09 04:07:58;;;;;;;5.77;3.93;;;;;;;-144.99;75.47;52219.81;5082549;28;20298;-80
2021/06/09 04:10:34;;;;;;;5.20;3.37;;;;;;;-144.99;75.30;52170.91;5075007;28;20211;-82
2021/06/09 04:13:08;;;;;;;5.00;3.97;;;;;;;-144.99;75.14;52197.41;5079425;28;20230;-78
2021/06/09 04:15:41;;;;;;;5.70;3.50;;;;;;;-144.99;74.78;52179.06;5069577;28;20230;-78
2021/06/09 04:18:14;;;;;;;4.30;3.50;;;;;;;-144.99;74.87;52219.81;5077466;28;20234;-77
2021/06/09 04:20:50;;;;;;;5.80;3.67;;;;;;;-144.99;74.64;52187.19;5076349;28;20207;-78
2021/06/09 04:23:25;;;;;;;6.43;4.97;;;;;;;-144.99;74.29;52195.34;5072079;28;20235;-77
2021/06/09 04:25:59;;;;;;;6.20;4.77;;;;;;;-144.99;74.50;52219.81;5065949;28;20209;-77
2021/06/09 04:28:34;;;;;;;6.37;4.20;;;;;;;-144.99;74.34;52223.88;5069960;28;20211;-78
2021/06/09 04:31:13;;;;;;;5.60;4.17;;;;;;;-144.99;74.26;52201.47;5068393;28;20285;-77
2021/06/09 04:33:48;;;;;;;5.47;3.30;;;;;;;-144.99;74.53;52187.19;5071037;28;20611;-78
2021/06/09 04:36:23;;;;;;;6.57;3.63;;;;;;;-144.99;74.07;52213.69;5073940;28;20224;-77
2021/06/09 04:38:58;;;;;;;7.00;4.13;;;;;;;-144.99;73.84;52191.28;5071847;28;20351;-78
2021/06/09 04:41:33;;;;;;;6.53;4.37;;;;;;;-144.99;73.26;52170.91;5069808;28;20227;-77
2021/06/09 04:44:07;;;;;;;6.00;3.67;;;;;;;-144.99;73.02;52203.50;5069397;28;20315;-77
2021/06/09 04:46:44;;;;;;;8.17;5.73;;;;;;;-144.99;73.47;52164.78;5069740;28;20295;-73
2021/06/09 04:49:18;;;;;;;7.57;4.60;;;;;;;-144.99;73.20;52187.19;5072608;28;20208;-80
2021/06/09 04:51:50;;;;;;;4.73;3.67;;;;;;;-144.99;72.63;52158.66;5072749;28;20569;-80
2021/06/09 04:54:25;;;;;;;5.87;4.40;;;;;;;-144.99;72.28;52187.19;5074028;28;20228;-82
2021/06/09 04:56:59;;;;;;;5.73;3.63;;;;;;;-144.99;72.18;52174.97;5089616;28;20258;-78
2021/06/09 04:59:31;;;;;;;5.17;2.93;;;;;;;-144.99;71.71;52187.19;5080071;28;20284;-79
2021/06/09 05:02:07;;;;;;;7.40;3.70;;;;;;;-144.99;71.30;52174.97;5068588;28;20687;-80
2021/06/09 05:04:41;;;;;;;5.67;3.60;;;;;;;-144.99;70.66;52170.91;5065038;28;20229;-84
2021/06/09 05:07:15;;;;;;;5.20;3.20;;;;;;;-144.99;69.78;52172.94;5075281;28;20330;-78
2021/06/09 05:09:50;;;;;;;5.80;3.20;;;;;;;-144.99;69.21;52179.06;4019648;28;10000721;-81
2021/06/09 05:12:28;;;;;;;5.63;3.60;;;;;;;-144.99;68.52;52203.50;5069654;28;20211;-84
2021/06/09 05:15:06;;;;;;;4.03;2.40;;;;;;;-144.99;67.14;52154.59;5068868;28;20209;-81
2021/06/09 05:17:48;;;;;;;5.23;3.00;;;;;;;-144.99;66.30;52166.81;5067510;28;20233;-76
2021/06/09 05:20:30;;;;;;;4.37;2.57;;;;;;;-144.99;65.82;52187.19;5069528;28;20296;-82
2021/06/09 05:23:10;;;;;;;4.93;3.13;;;;;;;-144.99;64.85;52181.09;5069155;28;20241;-80
2021/06/09 05:25:45;;;;;;;5.80;2.50;;;;;;;-144.99;63.29;52158.66;5075634;28;20232;-78
2021/06/09 05:28:19;;;;;;;2.80;1.70;;;;;;;-144.99;62.92;52183.13;5079574;28;20270;-82
2021/06/09 05:30:56;;;;;;;3.83;2.60;;;;;;;-144.99;62.78;52138.28;5074148;28;20215;-79
2021/06/09 05:33:34;;;;;;;3.20;1.70;;;;;;;-144.99;61.81;52166.81;5060920;28;20492;-78
2021/06/09 05:36:10;;;;;;;3.73;2.17;;;;;;;-144.99;61.60;52191.28;5062104;28;20240;-78
2021/06/09 05:38:45;;;;;;;3.33;1.60;;;;;;;-144.99;61.00;52142.38;5068717;28;20585;-77
2021/06/09 05:41:21;;;;;;;2.97;1.97;;;;;;;-144.99;60.39;52152.56;5069766;28;20220;-78
2021/06/09 05:43:52;;;;;;;3.50;1.97;;;;;;;-144.99;59.61;52124.03;5061527;28;20248;-77
2021/06/09 05:46:31;;;;;;;3.10;1.80;;;;;;;-144.99;59.43;52162.75;5068087;28;20289;-79
2021/06/09 05:49:10;;;;;;;3.83;1.80;;;;;;;-144.99;59.64;52138.28;5064702;28;20397;-77
2021/06/09 05:51:45;;;;;;;5.17;2.00;;;;;;;-144.99;59.28;52154.59;5068333;28;20216;-79
2021/06/09 05:54:20;;;;;;;3.73;2.00;;;;;;;-144.99;59.04;52170.91;5069773;28;20312;-82
2021/06/09 05:56:54;;;;;;;3.13;1.83;;;;;;;-144.99;58.59;52166.81;5067333;28;20372;-77
2021/06/09 05:59:29;;;;;;;3.93;1.87;;;;;;;-144.99;57.88;52152.56;5070108;28;20291;-77
2021/06/09 06:02:06;;;;;;;2.90;1.90;;;;;;;-144.99;57.05;52146.44;5074591;28;20712;-78
2021/06/09 06:04:42;;;;;;;2.67;1.73;;;;;;;-144.99;55.52;52117.91;5072077;28;20322;-77
2021/06/09 06:07:17;;;;;;;3.23;1.77;;;;;;;-144.99;55.24;52113.84;5070451;28;20222;-76
2021/06/09 06:09:52;;;;;;;3.37;2.17;;;;;;;-144.99;55.66;52117.91;5068266;28;20226;-77
2021/06/09 06:12:31;;;;;;;4.40;2.20;;;;;;;-144.99;55.62;52121.97;5071280;28;20543;-77
2021/06/09 06:15:07;;;;;;;4.50;1.77;;;;;;;-144.99;54.31;52105.69;5060039;28;20215;-78
2021/06/09 06:17:44;;;;;;;7.93;2.73;;;;;;;-144.99;53.72;52109.75;5067341;28;20236;-78
2021/06/09 06:20:22;;;;;;;4.77;2.23;;;;;;;-144.99;54.09;52126.06;5070026;28;20228;-80
2021/06/09 06:22:57;;;;;;;8.70;3.93;;;;;;;-144.99;53.91;52111.78;5067447;28;20921;-80
2021/06/09 06:25:33;;;;;;;4.27;2.17;;;;;;;-144.99;53.77;52117.91;5064314;28;20219;-80
2021/06/09 06:28:08;;;;;;;3.70;1.77;;;;;;;-144.99;52.90;52119.94;5060176;28;20216;-79
2021/06/09 06:30:44;;;;;;;3.80;2.10;;;;;;;-144.99;52.99;52158.66;5072457;28;20396;-79
2021/06/09 06:33:17;;;;;;;7.50;2.17;;;;;;;-144.99;53.39;52142.38;5071186;28;20248;-79
2021/06/09 06:36:08;;;;;;;4.77;1.73;;;;;;;-144.99;52.56;52154.59;5070329;28;20251;-79
2021/06/09 06:38:41;;;;;;;6.07;1.70;;;;;;;-144.99;52.19;52162.75;5061446;28;20204;-80
2021/06/09 06:41:16;;;;;;;4.13;1.63;;;;;;;-144.99;52.04;52128.09;5071164;28;20200;-77
2021/06/09 06:43:51;;;;;;;2.40;1.40;;;;;;;-144.99;52.34;52134.22;5070459;28;20236;-79
2021/06/09 06:46:25;;;;;;;3.30;1.70;;;;;;;-144.99;51.97;52124.03;5069779;28;20199;-79
2021/06/09 06:49:02;;;;;;;5.27;2.93;;;;;;;-144.99;52.23;52113.84;5060898;28;20299;-80
2021/06/09 06:51:41;;;;;;;2.50;1.83;;;;;;;-144.99;51.66;52136.25;5069728;28;20609;-81
2021/06/09 06:54:17;;;;;;;2.43;1.90;;;;;;;-144.99;51.89;52146.44;5066786;28;20244;-78
2021/06/09 06:56:54;;;;;;;2.63;1.67;;;;;;;-144.99;52.06;52158.66;5067250;28;20248;-77
2021/06/09 06:59:30;;;;;;;2.50;1.40;;;;;;;-144.99;51.63;52158.66;5068140;28;20310;-78
2021/06/09 07:02:07;;;;;;;3.77;1.60;;;;;;;-144.99;51.48;52130.13;5067149;28;20226;-77
2021/06/09 07:04:42;;;;;;;2.77;1.90;;;;;;;-144.99;51.81;52162.75;5068626;28;20236;-78
2021/06/09 07:07:19;;;;;;;5.30;3.20;;;;;;;-144.99;52.44;52132.19;5068283;28;20674;-77
2021/06/09 07:09:51;;;;;;;9.77;2.10;;;;;;;-144.99;52.32;52111.78;5064302;28;20216;-79
2021/06/09 07:12:26;;;;;;;3.23;1.60;;;;;;;-144.99;50.53;52128.09;5067378;28;20282;-78
2021/06/09 07:15:01;;;;;;;2.07;1.23;;;;;;;-144.99;50.98;52093.44;5067125;28;20214;-78
2021/06/09 07:17:38;;;;;;;1.50;0.97;;;;;;;-144.99;51.07;52081.22;5064166;28;20203;-78
2021/06/09 07:20:16;;;;;;;3.00;1.67;;;;;;;-144.99;50.33;52117.91;5068503;28;20241;-77
2021/06/09 07:22:57;;;;;;;3.10;1.87;;;;;;;-144.99;50.40;52089.38;5068437;28;20265;-77
2021/06/09 07:25:30;;;;;;;1.97;1.40;;;;;;;-144.99;49.76;52081.22;5066587;28;20218;-75
2021/06/09 07:28:08;;;;;;;1.73;1.10;;;;;;;-144.99;48.98;52113.84;5059110;28;20213;-76
2021/06/09 07:30:43;;;;;;;2.53;1.40;;;;;;;-144.99;49.27;52064.91;5066695;28;20239;-78
2021/06/09 07:33:19;;;;;;;1.63;1.30;;;;;;;-144.99;49.80;52121.97;5066846;28;20234;-78
2021/06/09 07:35:54;;;;;;;5.83;1.40;;;;;;;-144.99;48.98;52124.03;5065435;28;20260;-80
2021/06/09 07:38:35;;;;;;;2.80;1.63;;;;;;;-144.99;48.38;52097.53;5060183;28;20221;-78
2021/06/09 07:41:11;;;;;;;2.87;1.50;;;;;;;-144.99;48.57;52126.06;5055823;28;20267;-80
2021/06/09 07:43:48;;;;;;;6.33;2.03;;;;;;;-144.99;48.09;52113.84;5066066;28;20249;-78
2021/06/09 07:46:27;;;;;;;2.47;1.23;;;;;;;-144.99;48.15;52117.91;5063132;28;20214;-79
2021/06/09 07:49:07;;;;;;;2.53;1.37;;;;;;;-144.99;48.06;52179.06;5065474;28;20210;-80
2021/06/09 07:51:44;;;;;;;2.93;1.00;;;;;;;-144.99;49.01;52097.53;5065926;28;20229;-79
2021/06/09 07:54:22;;;;;;;2.13;1.30;;;;;;;-144.99;47.14;52081.22;5065122;28;20338;-78
2021/06/09 07:56:58;;;;;;;3.93;2.40;;;;;;;-144.99;46.02;52105.69;5058647;28;20234;-79
2021/06/09 07:59:30;;;;;;;3.67;1.40;;;;;;;-144.99;47.07;52101.59;5074670;28;20391;-78
2021/06/09 08:02:06;;;;;;;2.23;1.63;;;;;;;-144.99;46.76;52101.59;5069079;28;20210;-80
2021/06/09 08:04:42;;;;;;;3.80;1.57;;;;;;;-144.99;46.47;52081.22;5066586;28;20469;-78
2021/06/09 08:07:17;;;;;;;3.40;1.37;;;;;;;-144.99;45.51;52109.75;5065513;28;20215;-77
2021/06/09 08:09:53;;;;;;;2.57;1.40;;;;;;;-144.99;44.81;52085.31;5066280;28;20211;-78
2021/06/09 08:12:28;;;;;;;5.83;1.73;;;;;;;-144.99;46.77;52095.50;5070172;28;20207;-78
2021/06/09 08:15:03;;;;;;;4.13;1.10;;;;;;;-144.99;45.79;52069.00;5069285;28;20200;-77
2021/06/09 08:17:39;;;;;;;3.27;1.10;;;;;;;-144.99;45.75;52066.97;5058858;28;20227;-78
2021/06/09 08:20:13;;;;;;;2.67;1.23;;;;;;;-144.99;45.59;52093.44;5068568;28;20281;-78
2021/06/09 08:22:48;;;;;;;1.50;0.90;;;;;;;-144.99;44.73;52083.25;5069837;28;20255;-79
2021/06/09 08:25:25;;;;;;;3.40;1.57;;;;;;;-144.99;44.59;52091.41;5068744;28;20236;-77
2021/06/09 08:28:01;;;;;;;1.97;1.40;;;;;;;-144.99;44.55;52077.16;5061326;28;20215;-79
2021/06/09 08:30:33;;;;;;;1.23;0.73;;;;;;;-144.99;44.37;52093.44;5068631;28;20212;-77
2021/06/09 08:33:08;;;;;;;1.87;0.87;;;;;;;-144.99;44.13;52036.38;5069249;28;20237;-77
2021/06/09 08:35:43;;;;;;;2.47;1.17;;;;;;;-144.99;44.15;52069.00;5069052;28;20251;-76
2021/06/09 08:38:17;;;;;;;2.13;1.00;;;;;;;-144.99;43.68;52038.44;5061498;28;20359;-77
2021/06/09 08:40:53;;;;;;;1.37;0.93;;;;;;;-144.99;41.85;52058.81;5068805;28;20221;-76
2021/06/09 08:43:28;;;;;;;2.97;1.60;;;;;;;-144.99;41.90;52069.00;5063802;28;20228;-77
2021/06/09 08:46:03;;;;;;;1.77;1.07;;;;;;;-144.99;42.49;52077.16;5069199;28;20728;-76
2021/06/09 08:48:40;;;;;;;3.77;1.17;;;;;;;-144.99;43.06;52048.63;5068156;28;20802;-78
2021/06/09 08:51:18;;;;;;;2.60;1.53;;;;;;;-144.99;42.58;52040.47;5069169;28;20664;-77
2021/06/09 08:53:55;;;;;;;1.23;0.83;;;;;;;-144.99;42.01;52040.47;5068403;28;20230;-78
2021/06/09 08:56:28;;;;;;;1.60;1.00;;;;;;;-144.99;42.70;52077.16;5061659;28;20278;-77
2021/06/09 08:59:03;;;;;;;2.97;0.90;;;;;;;-144.99;42.99;52081.22;5060493;28;20268;-78
2021/06/09 09:01:38;;;;;;;7.03;1.73;;;;;;;-144.99;43.44;52126.06;5068086;28;20218;-77
2021/06/09 09:04:17;;;;;;;0.67;0.63;;;;;;;-144.99;43.16;52036.38;5068338;28;20601;-77
2021/06/09 09:06:51;;;;;;;2.57;1.40;;;;;;;-144.99;43.39;52058.81;5068292;28;20284;-76
2021/06/09 09:09:26;;;;;;;3.70;0.93;;;;;;;-144.99;42.59;52040.47;5064908;28;20217;-77
2021/06/09 09:12:05;;;;;;;4.20;1.97;;;;;;;-144.99;42.30;52044.53;5067969;28;20209;-79
2021/06/09 09:14:40;;;;;;;2.70;1.00;;;;;;;-144.99;41.53;52060.84;5068745;28;20306;-76
2021/06/09 09:17:15;;;;;;;3.03;1.40;;;;;;;-144.99;40.98;52073.06;5067411;28;20230;-75
2021/06/09 09:19:48;;;;;;;1.63;0.87;;;;;;;-144.99;40.75;52042.50;5067709;28;20212;-76
2021/06/09 09:22:34;;;;;;;2.07;1.03;;;;;;;-144.99;40.76;52046.56;5062476;28;20215;-79
2021/06/09 09:25:17;;;;;;;4.63;1.57;;;;;;;-144.99;41.03;52028.22;5058536;28;20702;-76
2021/06/09 09:28:01;;;;;;;1.23;1.03;;;;;;;-144.99;40.85;52030.28;5068089;28;20227;-78
2021/06/09 09:30:43;;;;;;;1.00;0.70;;;;;;;-144.99;41.62;52024.16;5065608;28;20658;-76
2021/06/09 09:33:22;;;;;;;1.67;1.00;;;;;;;-144.99;41.44;52016.00;5068856;28;20253;-79
2021/06/09 09:35:57;;;;;;;2.77;1.30;;;;;;;-144.99;40.28;52077.16;5066678;28;20378;-77
2021/06/09 09:38:41;;;;;;;1.50;1.07;;;;;;;-144.99;39.40;52016.00;5064466;28;20402;-78
2021/06/09 09:41:18;;;;;;;2.03;0.83;;;;;;;-144.99;40.24;52028.22;5067730;28;20695;-79
2021/06/09 09:44:01;;;;;;;2.30;0.87;;;;;;;-144.99;40.21;52064.91;5066996;28;20278;-77
2021/06/09 09:46:33;;;;;;;2.60;0.90;;;;;;;-144.99;40.45;52024.16;5062679;28;20210;-76
2021/06/09 09:49:17;;;;;;;1.20;0.83;;;;;;;-144.99;40.21;52048.63;5067447;28;20239;-78
2021/06/09 09:52:03;;;;;;;3.77;2.43;;;;;;;-144.99;39.45;52007.84;5066805;28;20616;-77
2021/06/09 09:54:43;;;;;;;3.03;1.60;;;;;;;-144.99;38.90;52003.78;5067624;28;20237;-80
2021/06/09 09:57:19;;;;;;;1.67;0.97;;;;;;;-144.99;38.88;52030.28;5066707;28;20322;-78
2021/06/09 10:00:01;;;;;;;2.40;0.90;;;;;;;-144.99;39.09;52003.78;5067958;28;20201;-78
2021/06/09 10:02:33;;;;;;;3.50;1.37;;;;;;;-144.99;39.22;51987.47;5066952;28;20216;-77
2021/06/09 10:05:15;;;;;;;0.97;0.80;;;;;;;-144.99;38.44;51983.41;5067042;28;20795;-78
2021/06/09 10:08:09;;;;;;;1.27;0.77;;;;;;;-144.99;38.41;52044.53;5065197;28;20695;-76
2021/06/09 10:10:44;;;;;;;2.20;0.83;;;;;;;-144.99;38.43;52056.78;5063721;28;20223;-79
2021/06/09 10:13:20;;;;;;;1.17;0.87;;;;;;;-144.99;38.42;52007.84;5067278;28;20312;-76
2021/06/09 10:15:56;;;;;;;3.20;1.13;;;;;;;-144.99;37.96;52007.84;5063900;28;20804;-76
2021/06/09 10:18:28;;;;;;;1.17;0.77;;;;;;;-144.99;39.02;52016.00;5068546;28;20283;-77
2021/06/09 10:21:00;;;;;;;1.70;1.20;;;;;;;-144.99;39.52;51979.31;5068010;28;20212;-77
2021/06/09 10:23:43;;;;;;;2.70;1.27;;;;;;;-144.99;39.58;51967.09;5069755;28;20318;-78
2021/06/09 10:26:18;;;;;;;1.43;1.00;;;;;;;-144.99;38.53;51985.44;5066042;28;20212;-77
2021/06/09 10:29:16;;;;;;;1.77;1.30;;;;;;;-144.99;38.11;51973.22;5067196;28;20684;-80
2021/06/09 10:31:55;;;;;;;5.73;1.60;;;;;;;-144.99;37.85;51960.97;5066440;28;20209;-79
2021/06/09 10:34:28;;;;;;;3.13;1.50;;;;;;;-144.99;37.91;51979.31;5063892;28;20261;-78
2021/06/09 10:37:04;;;;;;;3.30;1.23;;;;;;;-144.99;37.63;51958.94;5058615;28;20256;-78
2021/06/09 10:39:40;;;;;;;2.17;1.33;;;;;;;-144.99;37.26;51958.94;5067804;28;20225;-77
2021/06/09 10:42:12;;;;;;;2.43;1.07;;;;;;;-144.99;37.21;51971.16;5067791;28;20623;-79
2021/06/09 10:44:48;;;;;;;2.57;1.43;;;;;;;-144.99;37.09;51936.53;5066782;28;20224;-78
2021/06/09 10:47:27;;;;;;;3.30;1.53;;;;;;;-144.99;36.86;51918.19;5073837;28;20301;-82
2021/06/09 10:49:59;;;;;;;1.97;1.10;;;;;;;-144.99;36.63;51938.56;5080723;28;20322;-79
2021/06/09 10:52:34;;;;;;;1.87;1.50;;;;;;;-144.99;36.45;51967.09;5072792;28;20222;-78
2021/06/09 10:55:07;;;;;;;2.27;1.07;;;;;;;-144.99;36.70;51922.25;5070496;28;20226;-78
2021/06/09 10:57:50;;;;;;;1.93;1.20;;;;;;;-144.99;35.99;51910.03;5068245;28;20232;-79
2021/06/09 11:00:21;;;;;;;2.60;1.80;;;;;;;-144.99;36.69;51938.56;5066084;28;20736;-78
2021/06/09 11:03:01;;;;;;;4.80;3.03;;;;;;;-144.99;36.33;51954.88;5069640;28;20231;-77
2021/06/09 11:05:38;;;;;;;3.70;1.43;;;;;;;-144.99;36.70;51918.19;5079766;28;20223;-79
2021/06/09 11:08:12;;;;;;;3.60;2.30;;;;;;;-144.99;35.94;51926.34;5081303;28;20221;-80
2021/06/09 11:10:49;;;;;;;2.07;1.50;;;;;;;-144.99;36.09;51885.56;5075120;28;20246;-77
2021/06/09 11:13:41;;;;;;;3.37;2.40;;;;;;;-144.99;36.47;51889.66;5072268;28;20226;-80
2021/06/09 11:16:16;;;;;;;2.30;1.60;;;;;;;-144.99;35.87;51895.75;5069875;28;20227;-78
2021/06/09 11:18:52;;;;;;;4.10;1.13;;;;;;;-144.99;35.67;51910.03;5077743;28;20238;-78
2021/06/09 11:21:39;;;;;;;3.50;2.40;;;;;;;-144.99;35.75;51910.03;5072570;28;20305;-78
2021/06/09 11:24:14;;;;;;;2.90;2.50;;;;;;;-144.99;36.02;51922.25;5072343;28;20291;-78
2021/06/09 11:26:49;;;;;;;3.53;2.03;;;;;;;-144.99;35.88;51942.63;5069182;28;20222;-78
2021/06/09 11:29:38;;;;;;;2.83;1.97;;;;;;;-144.99;36.33;51875.38;5065992;28;20203;-78
2021/06/09 11:32:23;;;;;;;3.30;1.83;;;;;;;-144.99;36.08;51901.88;5066200;28;20208;-77
2021/06/09 11:35:05;;;;;;;3.00;1.57;;;;;;;-144.99;35.71;51910.03;5066776;28;20306;-79
2021/06/09 11:37:37;;;;;;;5.50;2.33;;;;;;;-144.99;35.25;51885.56;5060869;28;20235;-78
2021/06/09 11:40:09;;;;;;;1.40;1.30;;;;;;;-144.99;35.98;51865.19;5066189;28;20206;-78
2021/06/09 11:42:44;;;;;;;5.57;2.27;;;;;;;-144.99;35.38;51842.78;5058422;28;20243;-77
2021/06/09 11:45:34;;;;;;;2.47;1.73;;;;;;;-144.99;34.05;51861.13;5068378;28;20219;-79
2021/06/09 11:48:22;;;;;;;3.07;2.03;;;;;;;-144.99;34.70;51861.13;5068323;28;20205;-79
2021/06/09 11:51:02;;;;;;;2.73;1.73;;;;;;;-144.99;34.89;51897.81;5059470;28;20216;-76
2021/06/09 11:53:46;;;;;;;5.67;1.77;;;;;;;-144.99;35.84;51848.91;5070004;28;20228;-75
2021/06/09 11:56:29;;;;;;;4.17;2.17;;;;;;;-144.99;34.53;51995.63;5067602;28;20243;-74
2021/06/09 11:59:05;;;;;;;3.97;3.07;;;;;;;-144.99;35.20;51910.03;5062273;28;20207;-75